sensor_id;sensor_type;location;lat;lon;timestamp;P1;durP1;ratioP1;P2;durP2;ratioP2
32824;SDS011;51060;42.640;24.356;2022-09-01T00:00:26;22.52;;;10.25;;
32824;SDS011;51060;42.640;24.356;2022-09-01T00:02:56;14.48;;;9.57;;
32824;SDS011;51060;42.640;24.356;2022-09-01T00:05:22;27.60;;;9.48;;
32824;SDS011;51060;42.640;24.356;2022-09-01T00:07:47;18.98;;;11.15;;
32824;SDS011;51060;42.640;24.356;2022-09-01T00:10:14;25.02;;;9.85;;
32824;SDS011;51060;42.640;24.356;2022-09-01T00:12:41;10.77;;;9.00;;
32824;SDS011;51060;42.640;24.356;2022-09-01T00:15:08;13.82;;;8.95;;
32824;SDS011;51060;42.640;24.356;2022-09-01T00:17:35;10.13;;;8.55;;
32824;SDS011;51060;42.640;24.356;2022-09-01T00:20:00;9.98;;;8.55;;
32824;SDS011;51060;42.640;24.356;2022-09-01T00:22:26;8.90;;;7.93;;
32824;SDS011;51060;42.640;24.356;2022-09-01T00:24:53;10.77;;;8.82;;
32824;SDS011;51060;42.640;24.356;2022-09-01T00:27:19;11.98;;;8.50;;
32824;SDS011;51060;42.640;24.356;2022-09-01T00:29:44;10.70;;;8.73;;
32824;SDS011;51060;42.640;24.356;2022-09-01T00:32:11;12.50;;;9.15;;
32824;SDS011;51060;42.640;24.356;2022-09-01T00:34:36;12.90;;;9.80;;
32824;SDS011;51060;42.640;24.356;2022-09-01T00:37:02;9.20;;;8.30;;
32824;SDS011;51060;42.640;24.356;2022-09-01T00:39:28;10.18;;;9.18;;
32824;SDS011;51060;42.640;24.356;2022-09-01T00:41:53;10.40;;;8.23;;
32824;SDS011;51060;42.640;24.356;2022-09-01T00:44:20;8.48;;;7.03;;
32824;SDS011;51060;42.640;24.356;2022-09-01T00:46:52;10.70;;;8.20;;
32824;SDS011;51060;42.640;24.356;2022-09-01T00:49:30;16.25;;;11.68;;
32824;SDS011;51060;42.640;24.356;2022-09-01T00:51:59;23.73;;;11.63;;
32824;SDS011;51060;42.640;24.356;2022-09-01T00:54:29;14.70;;;10.93;;
32824;SDS011;51060;42.640;24.356;2022-09-01T00:56:58;26.65;;;10.07;;
32824;SDS011;51060;42.640;24.356;2022-09-01T00:59:24;43.97;;;10.38;;
32824;SDS011;51060;42.640;24.356;2022-09-01T01:01:50;13.68;;;9.57;;
32824;SDS011;51060;42.640;24.356;2022-09-01T01:04:15;12.85;;;8.63;;
32824;SDS011;51060;42.640;24.356;2022-09-01T01:06:45;10.70;;;9.07;;
32824;SDS011;51060;42.640;24.356;2022-09-01T01:09:20;9.60;;;8.60;;
32824;SDS011;51060;42.640;24.356;2022-09-01T01:11:46;13.63;;;9.95;;
32824;SDS011;51060;42.640;24.356;2022-09-01T01:14:12;16.30;;;9.82;;
32824;SDS011;51060;42.640;24.356;2022-09-01T01:16:45;12.40;;;9.13;;
32824;SDS011;51060;42.640;24.356;2022-09-01T01:19:15;11.13;;;9.05;;
32824;SDS011;51060;42.640;24.356;2022-09-01T01:22:07;14.18;;;9.20;;
32824;SDS011;51060;42.640;24.356;2022-09-01T01:24:55;12.65;;;9.00;;
32824;SDS011;51060;42.640;24.356;2022-09-01T01:27:21;9.98;;;8.90;;
32824;SDS011;51060;42.640;24.356;2022-09-01T01:29:47;10.35;;;9.35;;
32824;SDS011;51060;42.640;24.356;2022-09-01T01:32:14;13.93;;;8.48;;
32824;SDS011;51060;42.640;24.356;2022-09-01T01:34:39;13.43;;;9.70;;
32824;SDS011;51060;42.640;24.356;2022-09-01T01:37:06;11.98;;;8.88;;
32824;SDS011;51060;42.640;24.356;2022-09-01T01:39:35;40.33;;;9.45;;
32824;SDS011;51060;42.640;24.356;2022-09-01T01:42:04;13.13;;;8.55;;
32824;SDS011;51060;42.640;24.356;2022-09-01T01:44:33;11.77;;;9.68;;
32824;SDS011;51060;42.640;24.356;2022-09-01T01:47:04;18.17;;;9.82;;
32824;SDS011;51060;42.640;24.356;2022-09-01T01:49:33;10.98;;;9.35;;
32824;SDS011;51060;42.640;24.356;2022-09-01T01:51:59;10.40;;;9.30;;
32824;SDS011;51060;42.640;24.356;2022-09-01T01:54:25;16.85;;;9.40;;
32824;SDS011;51060;42.640;24.356;2022-09-01T01:56:55;24.48;;;10.75;;
32824;SDS011;51060;42.640;24.356;2022-09-01T01:59:22;27.83;;;10.05;;
32824;SDS011;51060;42.640;24.356;2022-09-01T02:01:48;21.42;;;10.10;;
32824;SDS011;51060;42.640;24.356;2022-09-01T02:04:15;25.02;;;9.73;;
32824;SDS011;51060;42.640;24.356;2022-09-01T02:06:42;26.40;;;10.88;;
32824;SDS011;51060;42.640;24.356;2022-09-01T02:09:10;17.02;;;9.95;;
32824;SDS011;51060;42.640;24.356;2022-09-01T02:11:36;12.15;;;9.13;;
32824;SDS011;51060;42.640;24.356;2022-09-01T02:14:03;10.90;;;9.80;;
32824;SDS011;51060;42.640;24.356;2022-09-01T02:16:31;10.65;;;9.25;;
32824;SDS011;51060;42.640;24.356;2022-09-01T02:18:57;15.85;;;8.98;;
32824;SDS011;51060;42.640;24.356;2022-09-01T02:21:24;10.15;;;9.02;;
32824;SDS011;51060;42.640;24.356;2022-09-01T02:23:56;11.85;;;9.32;;
32824;SDS011;51060;42.640;24.356;2022-09-01T02:26:36;10.45;;;8.68;;
32824;SDS011;51060;42.640;24.356;2022-09-01T02:29:04;11.00;;;8.73;;
32824;SDS011;51060;42.640;24.356;2022-09-01T02:31:34;16.02;;;10.48;;
32824;SDS011;51060;42.640;24.356;2022-09-01T02:34:03;13.48;;;10.82;;
32824;SDS011;51060;42.640;24.356;2022-09-01T02:36:29;14.07;;;11.85;;
32824;SDS011;51060;42.640;24.356;2022-09-01T02:38:59;17.92;;;13.43;;
32824;SDS011;51060;42.640;24.356;2022-09-01T02:41:24;21.48;;;14.88;;
32824;SDS011;51060;42.640;24.356;2022-09-01T02:43:53;13.70;;;10.38;;
32824;SDS011;51060;42.640;24.356;2022-09-01T02:46:18;13.35;;;10.45;;
32824;SDS011;51060;42.640;24.356;2022-09-01T02:48:47;17.67;;;11.55;;
32824;SDS011;51060;42.640;24.356;2022-09-01T02:51:16;19.50;;;11.27;;
32824;SDS011;51060;42.640;24.356;2022-09-01T02:53:43;32.85;;;11.38;;
32824;SDS011;51060;42.640;24.356;2022-09-01T02:56:12;28.98;;;10.00;;
32824;SDS011;51060;42.640;24.356;2022-09-01T02:58:39;33.28;;;9.57;;
32824;SDS011;51060;42.640;24.356;2022-09-01T03:01:19;12.55;;;9.25;;
32824;SDS011;51060;42.640;24.356;2022-09-01T03:03:49;11.65;;;9.18;;
32824;SDS011;51060;42.640;24.356;2022-09-01T03:06:16;10.48;;;9.27;;
32824;SDS011;51060;42.640;24.356;2022-09-01T03:08:48;13.27;;;9.90;;
32824;SDS011;51060;42.640;24.356;2022-09-01T03:11:15;15.07;;;10.60;;
32824;SDS011;51060;42.640;24.356;2022-09-01T03:13:40;12.95;;;9.65;;
32824;SDS011;51060;42.640;24.356;2022-09-01T03:16:06;13.20;;;9.98;;
32824;SDS011;51060;42.640;24.356;2022-09-01T03:18:33;16.65;;;10.38;;
32824;SDS011;51060;42.640;24.356;2022-09-01T03:20:59;9.70;;;8.70;;
32824;SDS011;51060;42.640;24.356;2022-09-01T03:23:26;10.43;;;8.85;;
32824;SDS011;51060;42.640;24.356;2022-09-01T03:25:52;11.38;;;9.27;;
32824;SDS011;51060;42.640;24.356;2022-09-01T03:28:18;17.65;;;10.48;;
32824;SDS011;51060;42.640;24.356;2022-09-01T03:30:48;14.80;;;9.70;;
32824;SDS011;51060;42.640;24.356;2022-09-01T03:33:17;31.25;;;9.32;;
32824;SDS011;51060;42.640;24.356;2022-09-01T03:35:44;14.50;;;8.98;;
32824;SDS011;51060;42.640;24.356;2022-09-01T03:38:10;12.07;;;8.93;;
32824;SDS011;51060;42.640;24.356;2022-09-01T03:40:45;10.73;;;9.57;;
32824;SDS011;51060;42.640;24.356;2022-09-01T03:43:11;14.15;;;11.60;;
32824;SDS011;51060;42.640;24.356;2022-09-01T03:45:38;22.45;;;16.73;;
32824;SDS011;51060;42.640;24.356;2022-09-01T03:48:05;19.20;;;16.35;;
32824;SDS011;51060;42.640;24.356;2022-09-01T03:50:34;20.63;;;15.40;;
32824;SDS011;51060;42.640;24.356;2022-09-01T03:53:04;16.00;;;13.13;;
32824;SDS011;51060;42.640;24.356;2022-09-01T03:55:31;13.02;;;11.48;;
32824;SDS011;51060;42.640;24.356;2022-09-01T03:57:59;13.05;;;11.73;;
32824;SDS011;51060;42.640;24.356;2022-09-01T04:00:31;16.77;;;12.93;;
32824;SDS011;51060;42.640;24.356;2022-09-01T04:03:00;11.40;;;10.20;;
32824;SDS011;51060;42.640;24.356;2022-09-01T04:05:28;12.60;;;9.40;;
32824;SDS011;51060;42.640;24.356;2022-09-01T04:07:56;11.50;;;10.35;;
32824;SDS011;51060;42.640;24.356;2022-09-01T04:10:22;11.35;;;9.98;;
32824;SDS011;51060;42.640;24.356;2022-09-01T04:12:48;12.18;;;10.13;;
32824;SDS011;51060;42.640;24.356;2022-09-01T04:15:14;14.18;;;10.68;;
32824;SDS011;51060;42.640;24.356;2022-09-01T04:17:42;13.70;;;11.35;;
32824;SDS011;51060;42.640;24.356;2022-09-01T04:20:27;16.67;;;12.35;;
32824;SDS011;51060;42.640;24.356;2022-09-01T04:22:53;14.40;;;11.77;;
32824;SDS011;51060;42.640;24.356;2022-09-01T04:25:19;15.90;;;12.15;;
32824;SDS011;51060;42.640;24.356;2022-09-01T04:27:51;16.50;;;12.45;;
32824;SDS011;51060;42.640;24.356;2022-09-01T04:30:21;22.10;;;14.90;;
32824;SDS011;51060;42.640;24.356;2022-09-01T04:32:51;18.95;;;13.35;;
32824;SDS011;51060;42.640;24.356;2022-09-01T04:35:20;19.05;;;15.38;;
32824;SDS011;51060;42.640;24.356;2022-09-01T04:37:57;23.80;;;15.45;;
32824;SDS011;51060;42.640;24.356;2022-09-01T04:40:24;18.63;;;13.63;;
32824;SDS011;51060;42.640;24.356;2022-09-01T04:42:50;24.33;;;15.05;;
32824;SDS011;51060;42.640;24.356;2022-09-01T04:45:16;21.38;;;14.70;;
32824;SDS011;51060;42.640;24.356;2022-09-01T04:47:45;19.95;;;15.13;;
32824;SDS011;51060;42.640;24.356;2022-09-01T04:50:11;26.50;;;15.80;;
32824;SDS011;51060;42.640;24.356;2022-09-01T04:52:44;16.67;;;13.70;;
32824;SDS011;51060;42.640;24.356;2022-09-01T04:55:12;23.77;;;15.82;;
32824;SDS011;51060;42.640;24.356;2022-09-01T04:57:45;18.25;;;15.85;;
32824;SDS011;51060;42.640;24.356;2022-09-01T05:00:13;27.17;;;18.75;;
32824;SDS011;51060;42.640;24.356;2022-09-01T05:02:56;27.10;;;21.15;;
32824;SDS011;51060;42.640;24.356;2022-09-01T05:05:29;30.20;;;22.08;;
32824;SDS011;51060;42.640;24.356;2022-09-01T05:08:11;26.17;;;21.35;;
32824;SDS011;51060;42.640;24.356;2022-09-01T05:10:41;25.55;;;20.48;;
32824;SDS011;51060;42.640;24.356;2022-09-01T05:13:08;24.90;;;19.80;;
32824;SDS011;51060;42.640;24.356;2022-09-01T05:15:39;23.95;;;19.25;;
32824;SDS011;51060;42.640;24.356;2022-09-01T05:18:14;23.63;;;19.13;;
32824;SDS011;51060;42.640;24.356;2022-09-01T05:20:47;22.65;;;18.45;;
32824;SDS011;51060;42.640;24.356;2022-09-01T05:23:13;23.98;;;19.33;;
32824;SDS011;51060;42.640;24.356;2022-09-01T05:25:43;20.85;;;17.30;;
32824;SDS011;51060;42.640;24.356;2022-09-01T05:40:16;14.80;;;11.85;;
32824;SDS011;51060;42.640;24.356;2022-09-01T05:42:42;13.60;;;12.15;;
32824;SDS011;51060;42.640;24.356;2022-09-01T05:45:08;14.18;;;12.10;;
32824;SDS011;51060;42.640;24.356;2022-09-01T05:47:36;15.10;;;13.68;;
32824;SDS011;51060;42.640;24.356;2022-09-01T05:50:03;26.40;;;24.00;;
32824;SDS011;51060;42.640;24.356;2022-09-01T05:52:37;25.85;;;23.45;;
32824;SDS011;51060;42.640;24.356;2022-09-01T05:55:03;19.83;;;17.20;;
32824;SDS011;51060;42.640;24.356;2022-09-01T05:57:33;15.38;;;13.85;;
32824;SDS011;51060;42.640;24.356;2022-09-01T06:00:01;16.42;;;12.48;;
32824;SDS011;51060;42.640;24.356;2022-09-01T06:02:34;17.85;;;13.90;;
32824;SDS011;51060;42.640;24.356;2022-09-01T06:05:01;17.95;;;13.77;;
32824;SDS011;51060;42.640;24.356;2022-09-01T06:07:27;15.75;;;14.13;;
32824;SDS011;51060;42.640;24.356;2022-09-01T06:09:53;16.05;;;14.35;;
32824;SDS011;51060;42.640;24.356;2022-09-01T06:12:18;15.52;;;12.93;;
32824;SDS011;51060;42.640;24.356;2022-09-01T06:14:47;16.17;;;14.52;;
32824;SDS011;51060;42.640;24.356;2022-09-01T06:17:15;15.73;;;13.38;;
32824;SDS011;51060;42.640;24.356;2022-09-01T06:19:43;16.73;;;13.68;;
32824;SDS011;51060;42.640;24.356;2022-09-01T06:22:10;15.75;;;13.52;;
32824;SDS011;51060;42.640;24.356;2022-09-01T06:24:36;14.80;;;12.95;;
32824;SDS011;51060;42.640;24.356;2022-09-01T06:27:04;12.90;;;11.55;;
32824;SDS011;51060;42.640;24.356;2022-09-01T06:29:34;16.55;;;12.98;;
32824;SDS011;51060;42.640;24.356;2022-09-01T06:32:06;16.70;;;12.80;;
32824;SDS011;51060;42.640;24.356;2022-09-01T06:34:45;17.25;;;13.07;;
32824;SDS011;51060;42.640;24.356;2022-09-01T06:37:14;16.63;;;12.80;;
32824;SDS011;51060;42.640;24.356;2022-09-01T06:39:40;16.30;;;12.20;;
32824;SDS011;51060;42.640;24.356;2022-09-01T06:42:06;14.18;;;12.05;;
32824;SDS011;51060;42.640;24.356;2022-09-01T06:44:33;14.20;;;12.20;;
32824;SDS011;51060;42.640;24.356;2022-09-01T06:46:59;15.75;;;12.95;;
32824;SDS011;51060;42.640;24.356;2022-09-01T06:49:25;18.08;;;12.52;;
32824;SDS011;51060;42.640;24.356;2022-09-01T06:51:59;15.48;;;12.57;;
32824;SDS011;51060;42.640;24.356;2022-09-01T06:54:30;12.50;;;11.20;;
32824;SDS011;51060;42.640;24.356;2022-09-01T06:57:00;13.70;;;10.98;;
32824;SDS011;51060;42.640;24.356;2022-09-01T06:59:28;15.57;;;11.18;;
32824;SDS011;51060;42.640;24.356;2022-09-01T07:01:56;14.98;;;12.60;;
32824;SDS011;51060;42.640;24.356;2022-09-01T07:04:26;14.45;;;11.93;;
32824;SDS011;51060;42.640;24.356;2022-09-01T07:06:53;16.98;;;12.25;;
32824;SDS011;51060;42.640;24.356;2022-09-01T07:09:19;12.80;;;10.02;;
32824;SDS011;51060;42.640;24.356;2022-09-01T07:11:45;13.40;;;10.70;;
32824;SDS011;51060;42.640;24.356;2022-09-01T07:14:11;11.40;;;10.20;;
32824;SDS011;51060;42.640;24.356;2022-09-01T07:16:41;18.67;;;11.30;;
32824;SDS011;51060;42.640;24.356;2022-09-01T07:19:09;12.82;;;10.38;;
32824;SDS011;51060;42.640;24.356;2022-09-01T07:21:39;13.90;;;9.32;;
32824;SDS011;51060;42.640;24.356;2022-09-01T07:24:05;12.00;;;7.75;;
32824;SDS011;51060;42.640;24.356;2022-09-01T07:26:31;11.23;;;7.68;;
32824;SDS011;51060;42.640;24.356;2022-09-01T07:28:59;14.75;;;6.97;;
32824;SDS011;51060;42.640;24.356;2022-09-01T07:31:28;12.05;;;7.20;;
32824;SDS011;51060;42.640;24.356;2022-09-01T07:33:58;8.50;;;6.70;;
32824;SDS011;51060;42.640;24.356;2022-09-01T07:36:24;12.90;;;7.80;;
32824;SDS011;51060;42.640;24.356;2022-09-01T07:38:50;12.40;;;6.88;;
32824;SDS011;51060;42.640;24.356;2022-09-01T07:41:21;9.70;;;7.30;;
32824;SDS011;51060;42.640;24.356;2022-09-01T07:43:53;11.98;;;7.78;;
32824;SDS011;51060;42.640;24.356;2022-09-01T07:46:21;10.98;;;7.50;;
32824;SDS011;51060;42.640;24.356;2022-09-01T07:48:48;10.80;;;7.13;;
32824;SDS011;51060;42.640;24.356;2022-09-01T07:51:16;11.82;;;6.95;;
32824;SDS011;51060;42.640;24.356;2022-09-01T07:53:43;11.27;;;7.65;;
32824;SDS011;51060;42.640;24.356;2022-09-01T07:56:10;11.27;;;7.72;;
32824;SDS011;51060;42.640;24.356;2022-09-01T07:58:37;11.85;;;7.45;;
32824;SDS011;51060;42.640;24.356;2022-09-01T08:01:07;12.68;;;7.57;;
32824;SDS011;51060;42.640;24.356;2022-09-01T08:03:34;15.25;;;8.43;;
32824;SDS011;51060;42.640;24.356;2022-09-01T08:06:04;15.52;;;8.00;;
32824;SDS011;51060;42.640;24.356;2022-09-01T08:08:32;13.77;;;8.38;;
32824;SDS011;51060;42.640;24.356;2022-09-01T08:10:58;12.68;;;7.93;;
32824;SDS011;51060;42.640;24.356;2022-09-01T08:13:24;15.02;;;7.40;;
32824;SDS011;51060;42.640;24.356;2022-09-01T08:15:49;10.68;;;7.90;;
32824;SDS011;51060;42.640;24.356;2022-09-01T08:18:15;10.48;;;7.78;;
32824;SDS011;51060;42.640;24.356;2022-09-01T08:20:41;13.25;;;8.48;;
32824;SDS011;51060;42.640;24.356;2022-09-01T08:23:13;11.57;;;7.63;;
32824;SDS011;51060;42.640;24.356;2022-09-01T08:25:42;13.88;;;7.93;;
32824;SDS011;51060;42.640;24.356;2022-09-01T08:28:08;12.57;;;8.32;;
32824;SDS011;51060;42.640;24.356;2022-09-01T08:30:34;11.75;;;8.00;;
32824;SDS011;51060;42.640;24.356;2022-09-01T08:33:02;14.32;;;7.75;;
32824;SDS011;51060;42.640;24.356;2022-09-01T08:35:28;11.98;;;8.07;;
32824;SDS011;51060;42.640;24.356;2022-09-01T08:37:54;11.10;;;8.70;;
32824;SDS011;51060;42.640;24.356;2022-09-01T08:40:20;12.10;;;8.30;;
32824;SDS011;51060;42.640;24.356;2022-09-01T08:47:56;10.88;;;8.52;;
32824;SDS011;51060;42.640;24.356;2022-09-01T08:50:25;10.23;;;7.90;;
32824;SDS011;51060;42.640;24.356;2022-09-01T08:52:59;10.95;;;8.35;;
32824;SDS011;51060;42.640;24.356;2022-09-01T08:55:49;12.13;;;9.40;;
32824;SDS011;51060;42.640;24.356;2022-09-01T08:58:16;13.98;;;8.65;;
32824;SDS011;51060;42.640;24.356;2022-09-01T09:00:43;11.88;;;8.27;;
32824;SDS011;51060;42.640;24.356;2022-09-01T09:03:25;11.40;;;8.38;;
32824;SDS011;51060;42.640;24.356;2022-09-01T09:09:13;10.75;;;8.13;;
32824;SDS011;51060;42.640;24.356;2022-09-01T09:12:01;12.35;;;9.18;;
32824;SDS011;51060;42.640;24.356;2022-09-01T09:17:22;14.82;;;8.90;;
32824;SDS011;51060;42.640;24.356;2022-09-01T09:19:49;16.95;;;8.80;;
32824;SDS011;51060;42.640;24.356;2022-09-01T09:22:16;10.07;;;8.77;;
32824;SDS011;51060;42.640;24.356;2022-09-01T09:24:53;12.32;;;8.90;;
32824;SDS011;51060;42.640;24.356;2022-09-01T09:27:24;12.85;;;8.32;;
32824;SDS011;51060;42.640;24.356;2022-09-01T09:29:56;10.60;;;7.95;;
32824;SDS011;51060;42.640;24.356;2022-09-01T09:32:23;15.85;;;9.48;;
32824;SDS011;51060;42.640;24.356;2022-09-01T09:35:23;12.48;;;8.23;;
32824;SDS011;51060;42.640;24.356;2022-09-01T09:37:52;10.20;;;8.02;;
32824;SDS011;51060;42.640;24.356;2022-09-01T09:40:19;10.02;;;7.55;;
32824;SDS011;51060;42.640;24.356;2022-09-01T09:45:24;9.35;;;7.50;;
32824;SDS011;51060;42.640;24.356;2022-09-01T09:47:51;9.07;;;8.18;;
32824;SDS011;51060;42.640;24.356;2022-09-01T09:50:23;8.68;;;7.22;;
32824;SDS011;51060;42.640;24.356;2022-09-01T09:53:09;7.32;;;5.63;;
32824;SDS011;51060;42.640;24.356;2022-09-01T09:55:36;8.60;;;6.30;;
32824;SDS011;51060;42.640;24.356;2022-09-01T09:58:20;9.95;;;7.07;;
32824;SDS011;51060;42.640;24.356;2022-09-01T10:03:41;13.60;;;8.10;;
32824;SDS011;51060;42.640;24.356;2022-09-01T10:06:10;14.32;;;7.97;;
32824;SDS011;51060;42.640;24.356;2022-09-01T10:08:39;10.13;;;7.13;;
32824;SDS011;51060;42.640;24.356;2022-09-01T10:11:10;10.55;;;7.40;;
32824;SDS011;51060;42.640;24.356;2022-09-01T10:13:54;10.63;;;7.50;;
32824;SDS011;51060;42.640;24.356;2022-09-01T10:16:29;12.80;;;7.47;;
32824;SDS011;51060;42.640;24.356;2022-09-01T10:18:57;9.27;;;7.03;;
32824;SDS011;51060;42.640;24.356;2022-09-01T10:21:32;14.85;;;7.00;;
32824;SDS011;51060;42.640;24.356;2022-09-01T10:24:00;9.23;;;7.57;;
32824;SDS011;51060;42.640;24.356;2022-09-01T10:26:31;8.98;;;7.00;;
32824;SDS011;51060;42.640;24.356;2022-09-01T10:29:04;9.05;;;7.15;;
32824;SDS011;51060;42.640;24.356;2022-09-01T10:31:31;9.10;;;7.65;;
32824;SDS011;51060;42.640;24.356;2022-09-01T10:33:58;10.80;;;7.88;;
32824;SDS011;51060;42.640;24.356;2022-09-01T10:36:25;11.10;;;7.97;;
32824;SDS011;51060;42.640;24.356;2022-09-01T10:38:51;11.05;;;7.72;;
32824;SDS011;51060;42.640;24.356;2022-09-01T10:44:19;12.25;;;7.63;;
32824;SDS011;51060;42.640;24.356;2022-09-01T10:46:46;8.32;;;7.22;;
32824;SDS011;51060;42.640;24.356;2022-09-01T10:49:21;9.82;;;7.90;;
32824;SDS011;51060;42.640;24.356;2022-09-01T10:51:53;10.30;;;7.85;;
32824;SDS011;51060;42.640;24.356;2022-09-01T10:57:08;9.57;;;6.88;;
32824;SDS011;51060;42.640;24.356;2022-09-01T10:59:35;9.68;;;7.55;;
32824;SDS011;51060;42.640;24.356;2022-09-01T11:07:49;8.02;;;6.68;;
32824;SDS011;51060;42.640;24.356;2022-09-01T11:15:51;11.23;;;7.13;;
32824;SDS011;51060;42.640;24.356;2022-09-01T11:18:24;9.60;;;6.28;;
32824;SDS011;51060;42.640;24.356;2022-09-01T11:20:52;10.80;;;6.80;;
32824;SDS011;51060;42.640;24.356;2022-09-01T11:23:24;12.55;;;7.40;;
32824;SDS011;51060;42.640;24.356;2022-09-01T11:25:58;10.15;;;7.40;;
32824;SDS011;51060;42.640;24.356;2022-09-01T11:31:03;11.73;;;7.72;;
32824;SDS011;51060;42.640;24.356;2022-09-01T11:33:49;10.90;;;7.95;;
32824;SDS011;51060;42.640;24.356;2022-09-01T11:36:25;10.45;;;8.13;;
32824;SDS011;51060;42.640;24.356;2022-09-01T11:47:23;9.32;;;7.40;;
32824;SDS011;51060;42.640;24.356;2022-09-01T11:52:34;9.85;;;7.32;;
32824;SDS011;51060;42.640;24.356;2022-09-01T11:55:03;11.98;;;7.35;;
32824;SDS011;51060;42.640;24.356;2022-09-01T11:57:37;12.23;;;7.70;;
32824;SDS011;51060;42.640;24.356;2022-09-01T12:00:05;10.60;;;7.75;;
32824;SDS011;51060;42.640;24.356;2022-09-01T12:02:33;13.38;;;7.63;;
32824;SDS011;51060;42.640;24.356;2022-09-01T12:05:01;10.35;;;6.78;;
32824;SDS011;51060;42.640;24.356;2022-09-01T12:07:46;10.93;;;8.20;;
32824;SDS011;51060;42.640;24.356;2022-09-01T12:10:34;14.95;;;7.90;;
32824;SDS011;51060;42.640;24.356;2022-09-01T12:15:32;12.00;;;7.45;;
32824;SDS011;51060;42.640;24.356;2022-09-01T12:18:20;10.88;;;7.50;;
32824;SDS011;51060;42.640;24.356;2022-09-01T12:20:48;10.48;;;7.45;;
32824;SDS011;51060;42.640;24.356;2022-09-01T12:23:16;15.07;;;12.63;;
32824;SDS011;51060;42.640;24.356;2022-09-01T12:25:53;11.15;;;7.35;;
32824;SDS011;51060;42.640;24.356;2022-09-01T12:28:21;14.57;;;7.68;;
32824;SDS011;51060;42.640;24.356;2022-09-01T12:30:49;11.57;;;6.60;;
32824;SDS011;51060;42.640;24.356;2022-09-01T12:33:16;13.57;;;7.55;;
32824;SDS011;51060;42.640;24.356;2022-09-01T12:35:42;12.48;;;7.72;;
32824;SDS011;51060;42.640;24.356;2022-09-01T12:40:44;10.40;;;7.28;;
32824;SDS011;51060;42.640;24.356;2022-09-01T12:43:11;14.43;;;8.05;;
32824;SDS011;51060;42.640;24.356;2022-09-01T12:45:55;11.40;;;7.82;;
32824;SDS011;51060;42.640;24.356;2022-09-01T12:48:25;10.77;;;7.78;;
32824;SDS011;51060;42.640;24.356;2022-09-01T12:50:53;8.68;;;7.68;;
32824;SDS011;51060;42.640;24.356;2022-09-01T12:53:20;11.38;;;7.82;;
32824;SDS011;51060;42.640;24.356;2022-09-01T12:55:55;11.43;;;8.30;;
32824;SDS011;51060;42.640;24.356;2022-09-01T12:58:26;11.20;;;7.43;;
32824;SDS011;51060;42.640;24.356;2022-09-01T13:00:59;12.10;;;7.50;;
32824;SDS011;51060;42.640;24.356;2022-09-01T13:03:28;12.88;;;7.97;;
32824;SDS011;51060;42.640;24.356;2022-09-01T13:05:56;12.30;;;7.68;;
32824;SDS011;51060;42.640;24.356;2022-09-01T13:08:30;12.73;;;8.00;;
32824;SDS011;51060;42.640;24.356;2022-09-01T13:11:00;10.30;;;7.45;;
32824;SDS011;51060;42.640;24.356;2022-09-01T13:13:36;9.75;;;6.75;;
32824;SDS011;51060;42.640;24.356;2022-09-01T13:16:02;12.85;;;7.78;;
32824;SDS011;51060;42.640;24.356;2022-09-01T13:18:34;11.52;;;7.20;;
32824;SDS011;51060;42.640;24.356;2022-09-01T13:21:00;10.65;;;7.30;;
32824;SDS011;51060;42.640;24.356;2022-09-01T13:23:25;11.82;;;7.30;;
32824;SDS011;51060;42.640;24.356;2022-09-01T13:25:51;11.38;;;7.00;;
32824;SDS011;51060;42.640;24.356;2022-09-01T13:28:17;9.75;;;6.80;;
32824;SDS011;51060;42.640;24.356;2022-09-01T13:30:45;12.23;;;6.57;;
32824;SDS011;51060;42.640;24.356;2022-09-01T13:33:13;9.73;;;6.43;;
32824;SDS011;51060;42.640;24.356;2022-09-01T13:35:39;8.75;;;6.28;;
32824;SDS011;51060;42.640;24.356;2022-09-01T13:38:04;9.77;;;6.35;;
32824;SDS011;51060;42.640;24.356;2022-09-01T13:40:30;10.10;;;6.88;;
32824;SDS011;51060;42.640;24.356;2022-09-01T13:42:55;9.70;;;6.43;;
32824;SDS011;51060;42.640;24.356;2022-09-01T13:45:23;9.48;;;6.10;;
32824;SDS011;51060;42.640;24.356;2022-09-01T13:47:49;8.23;;;6.13;;
32824;SDS011;51060;42.640;24.356;2022-09-01T13:50:17;11.10;;;6.45;;
32824;SDS011;51060;42.640;24.356;2022-09-01T13:52:45;10.80;;;6.90;;
32824;SDS011;51060;42.640;24.356;2022-09-01T13:55:13;8.10;;;6.70;;
32824;SDS011;51060;42.640;24.356;2022-09-01T13:57:40;8.25;;;6.63;;
32824;SDS011;51060;42.640;24.356;2022-09-01T14:00:08;13.40;;;6.70;;
32824;SDS011;51060;42.640;24.356;2022-09-01T14:02:40;9.55;;;6.78;;
32824;SDS011;51060;42.640;24.356;2022-09-01T14:05:28;10.15;;;6.80;;
32824;SDS011;51060;42.640;24.356;2022-09-01T14:07:55;8.73;;;6.93;;
32824;SDS011;51060;42.640;24.356;2022-09-01T14:10:22;8.00;;;6.80;;
32824;SDS011;51060;42.640;24.356;2022-09-01T14:12:49;11.15;;;6.88;;
32824;SDS011;51060;42.640;24.356;2022-09-01T14:15:15;9.95;;;6.70;;
32824;SDS011;51060;42.640;24.356;2022-09-01T14:17:42;9.45;;;6.65;;
32824;SDS011;51060;42.640;24.356;2022-09-01T14:20:10;8.88;;;6.32;;
32824;SDS011;51060;42.640;24.356;2022-09-01T14:22:42;9.10;;;6.57;;
32824;SDS011;51060;42.640;24.356;2022-09-01T14:25:09;6.80;;;5.63;;
32824;SDS011;51060;42.640;24.356;2022-09-01T14:27:36;9.10;;;6.22;;
32824;SDS011;51060;42.640;24.356;2022-09-01T14:30:05;9.95;;;6.30;;
32824;SDS011;51060;42.640;24.356;2022-09-01T14:32:32;8.15;;;6.20;;
32824;SDS011;51060;42.640;24.356;2022-09-01T14:34:58;10.80;;;5.93;;
32824;SDS011;51060;42.640;24.356;2022-09-01T14:37:24;12.88;;;6.20;;
32824;SDS011;51060;42.640;24.356;2022-09-01T14:39:51;10.00;;;6.32;;
32824;SDS011;51060;42.640;24.356;2022-09-01T14:42:20;9.73;;;6.43;;
32824;SDS011;51060;42.640;24.356;2022-09-01T14:44:48;9.18;;;7.05;;
32824;SDS011;51060;42.640;24.356;2022-09-01T14:47:13;10.95;;;7.15;;
32824;SDS011;51060;42.640;24.356;2022-09-01T14:49:41;8.32;;;6.55;;
32824;SDS011;51060;42.640;24.356;2022-09-01T14:52:07;10.23;;;6.70;;
32824;SDS011;51060;42.640;24.356;2022-09-01T14:54:34;9.40;;;6.55;;
32824;SDS011;51060;42.640;24.356;2022-09-01T14:57:01;9.90;;;6.63;;
32824;SDS011;51060;42.640;24.356;2022-09-01T14:59:27;10.38;;;7.07;;
32824;SDS011;51060;42.640;24.356;2022-09-01T15:01:52;8.35;;;6.65;;
32824;SDS011;51060;42.640;24.356;2022-09-01T15:04:18;11.60;;;6.50;;
32824;SDS011;51060;42.640;24.356;2022-09-01T15:06:44;8.13;;;6.70;;
32824;SDS011;51060;42.640;24.356;2022-09-01T15:09:09;7.38;;;6.63;;
32824;SDS011;51060;42.640;24.356;2022-09-01T15:11:35;10.73;;;6.40;;
32824;SDS011;51060;42.640;24.356;2022-09-01T15:14:01;7.70;;;5.70;;
32824;SDS011;51060;42.640;24.356;2022-09-01T15:16:26;9.63;;;6.10;;
32824;SDS011;51060;42.640;24.356;2022-09-01T15:18:52;11.88;;;6.65;;
32824;SDS011;51060;42.640;24.356;2022-09-01T15:21:26;9.07;;;6.50;;
32824;SDS011;51060;42.640;24.356;2022-09-01T15:23:54;10.20;;;7.05;;
32824;SDS011;51060;42.640;24.356;2022-09-01T15:26:19;9.15;;;6.93;;
32824;SDS011;51060;42.640;24.356;2022-09-01T15:28:46;9.18;;;7.45;;
32824;SDS011;51060;42.640;24.356;2022-09-01T15:31:12;12.68;;;8.10;;
32824;SDS011;51060;42.640;24.356;2022-09-01T15:33:39;10.52;;;7.32;;
32824;SDS011;51060;42.640;24.356;2022-09-01T15:36:05;9.13;;;6.75;;